Terminal Aerodrome Forecast
Issued by NWS

Home | Current Version | Previous Version | Text Only | Print | Product List | Glossary On
Versions: 1 2 3 4 5 6 7 8 9 10 11 12 13 14
274
FTUS43 KMPX 272333
TAFRWF
TAF
KRWF 272333Z 2800/2824 15009KT P6SM BKN050 OVC120
     FM280600 16006KT P6SM SCT012 OVC060
     FM280900 10005KT 6SM BR OVC012
     FM281200 33006KT 5SM -DZ BR OVC008
     FM281800 35008KT P6SM OVC015=

USA.gov is the U.S. government's official web portal to all federal, state and local government web resources and services.